Time;durP1;ratioP1;P1;durP2;ratioP2;P2;SDS_P1;SDS_P2;PMS_P1;PMS_P2;Temp;Humidity;BMP_temperature;BMP_pressure;BME280_temperature;BME280_humidity;BME280_pressure;Samples;Min_cycle;Max_cycle;Signal;HPM_P1;HPM_P2
2021/01/19 00:02:19;;;;;;;5.97;4.30;;;-0.40;99.90;;;;;;4716887;30;20084;-79
2021/01/19 00:04:46;;;;;;;9.77;4.57;;;-0.40;99.90;;;;;;4716509;30;20110;-79
2021/01/19 00:07:17;;;;;;;6.45;3.95;;;-0.40;99.90;;;;;;4716838;30;20572;-80
2021/01/19 00:09:48;;;;;;;7.03;4.72;;;-0.50;99.90;;;;;;4717093;30;20143;-79
2021/01/19 00:12:19;;;;;;;6.88;4.03;;;-0.50;99.90;;;;;;4716748;30;20048;-79
2021/01/19 00:14:51;;;;;;;6.10;3.97;;;-0.50;99.90;;;;;;4732321;30;20084;-80
2021/01/19 00:17:22;;;;;;;6.05;4.05;;;-0.50;99.90;;;;;;4716704;30;20057;-80
2021/01/19 00:19:48;;;;;;;7.82;4.38;;;-0.50;99.90;;;;;;4716411;30;20154;-79
2021/01/19 00:22:19;;;;;;;7.75;4.30;;;-0.60;99.90;;;;;;4732182;30;20135;-80
2021/01/19 00:24:51;;;;;;;9.32;4.60;;;-0.60;99.90;;;;;;4730125;30;20076;-79
2021/01/19 00:27:17;;;;;;;6.95;3.72;;;-0.70;99.90;;;;;;4715981;30;20144;-79
2021/01/19 00:29:48;;;;;;;6.63;4.50;;;-0.70;99.90;;;;;;4730022;30;20048;-79
2021/01/19 00:32:20;;;;;;;10.13;3.72;;;-0.80;99.90;;;;;;4716286;30;20156;-79
2021/01/19 00:34:51;;;;;;;5.07;3.47;;;-0.80;99.90;;;;;;4715938;30;20532;-79
2021/01/19 00:37:17;;;;;;;6.20;3.97;;;-0.80;99.90;;;;;;4716151;30;20083;-79
2021/01/19 00:39:48;;;;;;;7.15;4.50;;;-0.80;99.90;;;;;;4729790;30;20477;-80
2021/01/19 00:42:20;;;;;;;8.02;4.63;;;-0.80;99.90;;;;;;4716059;30;20059;-80
2021/01/19 00:44:51;;;;;;;6.50;3.92;;;-0.80;99.90;;;;;;4715993;30;20083;-79
2021/01/19 00:47:22;;;;;;;8.13;4.10;;;-0.80;99.90;;;;;;4729726;30;20052;-79
2021/01/19 00:49:53;;;;;;;7.70;4.20;;;-0.90;99.90;;;;;;4715782;30;20083;-79
2021/01/19 00:52:25;;;;;;;6.30;4.05;;;-0.90;99.90;;;;;;4729720;30;20060;-80
2021/01/19 00:54:56;;;;;;;7.60;4.40;;;-0.90;99.90;;;;;;4715857;30;20091;-79
2021/01/19 00:57:28;;;;;;;7.72;3.95;;;-0.90;99.90;;;;;;4730276;30;20049;-79
2021/01/19 00:59:59;;;;;;;7.63;4.13;;;-0.90;99.90;;;;;;4715322;30;20044;-79
2021/01/19 01:02:30;;;;;;;7.68;4.03;;;-0.90;99.90;;;;;;4729712;30;20057;-79
2021/01/19 01:05:06;;;;;;;7.68;4.40;;;-0.90;99.90;;;;;;4731185;30;20128;-79
2021/01/19 01:07:40;;;;;;;8.68;4.95;;;-0.90;99.90;;;;;;4715500;30;20717;-79
2021/01/19 01:10:15;;;;;;;10.38;4.15;;;-0.90;99.90;;;;;;4734317;30;20128;-79
2021/01/19 01:12:46;;;;;;;7.13;4.00;;;-0.90;99.90;;;;;;4708491;30;20143;-79
2021/01/19 01:15:29;;;;;;;6.90;4.43;;;-1.00;99.90;;;;;;4721130;30;20076;-79
2021/01/19 01:18:01;;;;;;;7.95;4.50;;;-1.00;99.90;;;;;;4705193;30;20515;-79
2021/01/19 01:20:32;;;;;;;11.77;4.47;;;-1.00;99.90;;;;;;4703352;30;20053;-79
2021/01/19 01:23:03;;;;;;;7.45;4.57;;;-1.00;99.90;;;;;;4720284;30;20485;-80
2021/01/19 01:25:35;;;;;;;5.80;4.30;;;-1.00;99.90;;;;;;4706582;30;20136;-80
2021/01/19 01:28:01;;;;;;;7.53;4.22;;;-1.00;99.90;;;;;;4734729;30;20087;-80
2021/01/19 01:30:32;;;;;;;8.02;5.25;;;-1.00;99.90;;;;;;4706634;30;20504;-80
2021/01/19 01:33:03;;;;;;;8.93;5.05;;;-1.00;99.90;;;;;;4720174;30;20048;-80
2021/01/19 01:35:35;;;;;;;8.70;5.68;;;-1.00;99.90;;;;;;4720128;30;20068;-80
2021/01/19 01:38:06;;;;;;;8.90;4.88;;;-0.90;99.90;;;;;;4720092;30;20092;-80
2021/01/19 01:40:37;;;;;;;6.80;4.50;;;-1.00;99.90;;;;;;4733726;30;20536;-80
2021/01/19 01:43:13;;;;;;;8.52;4.97;;;-1.00;99.90;;;;;;4705992;30;20143;-80
2021/01/19 01:45:45;;;;;;;8.68;5.50;;;-1.00;99.90;;;;;;4719645;30;20052;-80
2021/01/19 01:48:16;;;;;;;10.30;5.10;;;-1.00;99.90;;;;;;4719743;30;20059;-80
2021/01/19 01:50:47;;;;;;;6.28;4.35;;;-1.00;99.90;;;;;;4719970;30;20048;-80
2021/01/19 01:53:19;;;;;;;9.40;5.20;;;-1.10;99.90;;;;;;4734524;30;20044;-80
2021/01/19 01:55:50;;;;;;;8.10;5.22;;;-1.00;99.90;;;;;;4706069;30;20155;-80
2021/01/19 01:58:21;;;;;;;8.52;5.13;;;-1.10;99.90;;;;;;4719737;30;20586;-80
2021/01/19 02:00:53;;;;;;;8.90;4.97;;;-1.10;99.90;;;;;;4734497;30;20062;-80
2021/01/19 02:03:24;;;;;;;9.45;4.97;;;-1.10;99.90;;;;;;4719528;30;20063;-80
2021/01/19 02:05:56;;;;;;;11.30;5.78;;;-1.00;99.90;;;;;;4734832;30;20416;-80
2021/01/19 02:08:33;;;;;;;8.52;6.32;;;-1.10;99.90;;;;;;4733182;30;20059;-80
2021/01/19 02:11:27;;;;;;;8.02;5.45;;;-1.00;99.90;;;;;;4719299;30;20048;-80
2021/01/19 02:14:17;;;;;;;7.95;5.30;;;-1.00;99.90;;;;;;4718975;30;20107;-80
2021/01/19 02:17:28;;;;;;;13.20;6.68;;;-1.00;99.90;;;;;;4719121;30;20143;-80
2021/01/19 02:20:02;;;;;;;9.20;5.63;;;-1.10;99.90;;;;;;4733680;30;20072;-80
2021/01/19 02:22:57;;;;;;;9.20;5.85;;;-1.20;99.90;;;;;;4718552;30;20049;-80
2021/01/19 02:25:53;;;;;;;10.73;5.95;;;-1.20;99.90;;;;;;4718935;30;20139;-80
2021/01/19 02:28:29;;;;;;;9.95;5.50;;;-1.10;99.90;;;;;;4718485;30;20143;-80
2021/01/19 02:31:09;;;;;;;11.25;6.78;;;-1.20;99.90;;;;;;4705001;30;20505;-80
2021/01/19 02:34:06;;;;;;;10.43;6.05;;;-1.30;99.90;;;;;;4718733;30;20045;-79
2021/01/19 02:36:56;;;;;;;7.88;5.13;;;-1.30;99.90;;;;;;4718759;30;20053;-80
2021/01/19 02:39:38;;;;;;;7.90;5.20;;;-1.40;99.90;;;;;;4718797;30;20147;-80
2021/01/19 02:42:11;;;;;;;8.45;5.50;;;-1.40;99.90;;;;;;4719049;30;20069;-80
2021/01/19 02:44:46;;;;;;;11.20;5.63;;;-1.40;99.90;;;;;;4718813;30;20072;-80
2021/01/19 02:47:18;;;;;;;8.52;6.07;;;-1.40;99.90;;;;;;4718878;30;20060;-80
2021/01/19 02:49:49;;;;;;;7.65;5.13;;;-1.40;99.90;;;;;;4718570;30;20069;-80
2021/01/19 02:52:21;;;;;;;8.35;5.30;;;-1.40;99.90;;;;;;4719583;30;20139;-80
2021/01/19 02:54:48;;;;;;;8.63;5.32;;;-1.40;99.90;;;;;;4718898;30;20059;-80
2021/01/19 02:57:54;;;;;;;9.35;4.95;;;-1.40;99.90;;;;;;4718704;30;20139;-80
2021/01/19 03:00:34;;;;;;;10.95;5.43;;;-1.40;99.90;;;;;;4708860;30;20100;-80
2021/01/19 03:03:08;;;;;;;8.82;5.32;;;-1.40;99.90;;;;;;4718997;30;20064;-80
2021/01/19 03:05:40;;;;;;;7.95;5.00;;;-1.40;99.90;;;;;;4718619;30;20501;-80
2021/01/19 03:08:13;;;;;;;9.95;6.00;;;-1.50;99.90;;;;;;4718404;30;20139;-80
2021/01/19 03:10:48;;;;;;;7.45;5.05;;;-1.50;99.90;;;;;;4718630;30;20132;-80
2021/01/19 03:13:14;;;;;;;7.75;4.75;;;-1.60;99.90;;;;;;4718534;30;20420;-80
2021/01/19 03:15:45;;;;;;;9.63;5.45;;;-1.60;99.90;;;;;;4732674;30;20048;-80
2021/01/19 03:18:12;;;;;;;10.80;5.93;;;-1.60;99.90;;;;;;4732749;30;20516;-80
2021/01/19 03:20:43;;;;;;;11.70;6.88;;;-1.70;99.90;;;;;;4718695;30;20587;-80
2021/01/19 03:23:14;;;;;;;8.77;5.50;;;-1.70;99.90;;;;;;4718733;30;20133;-80
2021/01/19 03:25:46;;;;;;;9.10;5.88;;;-1.70;99.90;;;;;;4733285;30;20053;-79
2021/01/19 03:28:17;;;;;;;10.18;5.82;;;-1.80;99.90;;;;;;4704956;30;20600;-80
2021/01/19 03:30:48;;;;;;;8.80;5.82;;;-1.80;99.90;;;;;;4732522;30;20140;-80
2021/01/19 03:33:20;;;;;;;8.05;5.72;;;-1.80;99.90;;;;;;4717808;30;20065;-80
2021/01/19 03:35:51;;;;;;;9.73;5.78;;;-1.90;99.90;;;;;;4718539;30;20130;-80
2021/01/19 03:38:22;;;;;;;10.10;5.95;;;-1.90;99.90;;;;;;4718537;30;20156;-80
2021/01/19 03:40:49;;;;;;;9.25;5.50;;;-1.90;99.90;;;;;;4718819;30;20088;-80
2021/01/19 03:43:20;;;;;;;10.27;5.72;;;-1.90;99.90;;;;;;4718345;30;20477;-80
2021/01/19 03:45:51;;;;;;;8.77;6.45;;;-2.00;99.90;;;;;;4718332;30;20136;-80
2021/01/19 03:48:22;;;;;;;10.52;6.15;;;-2.10;99.90;;;;;;4732288;30;20044;-80
2021/01/19 03:50:54;;;;;;;8.35;5.78;;;-2.10;99.90;;;;;;4718889;30;20471;-80
2021/01/19 03:53:25;;;;;;;9.45;6.35;;;-2.10;99.90;;;;;;4718538;30;20064;-81
2021/01/19 03:55:56;;;;;;;7.18;4.85;;;-2.20;99.90;;;;;;4718357;30;20420;-80
2021/01/19 03:58:27;;;;;;;10.05;6.45;;;-2.20;99.90;;;;;;4732446;30;20067;-80
2021/01/19 04:00:54;;;;;;;10.40;6.15;;;-2.30;99.90;;;;;;4733145;30;20080;-80
2021/01/19 04:03:25;;;;;;;10.15;6.18;;;-2.30;99.90;;;;;;4733296;30;20048;-80
2021/01/19 04:05:56;;;;;;;10.88;5.88;;;-2.40;99.90;;;;;;4718147;30;20135;-80
2021/01/19 04:08:23;;;;;;;12.77;6.97;;;-2.40;99.90;;;;;;4732765;30;20501;-80
2021/01/19 04:10:54;;;;;;;14.18;7.28;;;-2.40;99.90;;;;;;4732027;30;20058;-80
2021/01/19 04:13:25;;;;;;;12.25;6.97;;;-2.40;99.90;;;;;;4733021;30;20045;-80
2021/01/19 04:15:56;;;;;;;11.45;7.28;;;-2.30;99.90;;;;;;4731961;30;20413;-80
2021/01/19 04:18:28;;;;;;;12.85;7.55;;;-2.30;99.90;;;;;;4732825;30;20283;-80
2021/01/19 04:20:54;;;;;;;10.95;6.97;;;-2.20;99.90;;;;;;4732455;30;20402;-80
2021/01/19 04:23:25;;;;;;;10.95;7.18;;;-2.20;99.90;;;;;;4718050;30;20156;-80
2021/01/19 04:25:57;;;;;;;12.05;7.18;;;-2.20;99.90;;;;;;4718131;30;20135;-80
2021/01/19 04:28:23;;;;;;;11.30;6.70;;;-2.30;99.90;;;;;;4716094;30;20080;-78
2021/01/19 04:30:54;;;;;;;11.63;6.55;;;-2.30;99.90;;;;;;4729920;30;20447;-78
2021/01/19 04:33:26;;;;;;;13.93;6.82;;;-2.30;99.90;;;;;;4715843;30;20049;-78
2021/01/19 04:35:57;;;;;;;11.63;6.78;;;-2.30;99.90;;;;;;4730526;30;20045;-78
2021/01/19 04:38:28;;;;;;;11.35;6.47;;;-2.30;99.90;;;;;;4715793;30;20619;-78
2021/01/19 04:40:59;;;;;;;10.95;6.22;;;-2.30;99.90;;;;;;4716039;30;20140;-78
2021/01/19 04:43:31;;;;;;;10.15;6.47;;;-2.30;99.90;;;;;;4715959;30;20063;-78
2021/01/19 04:46:03;;;;;;;12.05;6.57;;;-2.40;99.90;;;;;;4718707;30;20453;-78
2021/01/19 04:48:35;;;;;;;12.23;7.07;;;-2.40;99.90;;;;;;4719076;30;20045;-78
2021/01/19 04:51:15;;;;;;;13.90;7.10;;;-2.40;99.90;;;;;;4718982;30;20517;-78
2021/01/19 04:54:00;;;;;;;11.23;7.28;;;-2.40;99.90;;;;;;4734803;30;20045;-77
2021/01/19 04:56:31;;;;;;;14.80;7.20;;;-2.30;99.90;;;;;;4705147;30;20139;-77
2021/01/19 04:59:11;;;;;;;14.00;7.85;;;-2.40;99.90;;;;;;4732604;30;20052;-77
2021/01/19 05:01:55;;;;;;;14.27;7.47;;;-2.50;99.90;;;;;;4718941;30;20135;-77
2021/01/19 05:04:26;;;;;;;11.85;6.78;;;-2.50;99.90;;;;;;4718900;30;20063;-77
2021/01/19 05:07:19;;;;;;;12.40;6.90;;;-2.60;99.90;;;;;;4718629;30;20052;-77
2021/01/19 05:10:06;;;;;;;9.43;5.68;;;-2.60;99.90;;;;;;4734548;30;20060;-77
2021/01/19 05:12:43;;;;;;;11.85;7.13;;;-2.60;99.90;;;;;;4718942;30;20100;-77
2021/01/19 05:15:14;;;;;;;12.27;6.50;;;-2.70;99.90;;;;;;4719057;30;20141;-77
2021/01/19 05:17:47;;;;;;;11.02;6.07;;;-2.70;99.90;;;;;;4719503;30;20127;-77
2021/01/19 05:20:21;;;;;;;11.10;6.22;;;-2.70;99.90;;;;;;4732684;30;20057;-77
2021/01/19 05:22:57;;;;;;;10.93;6.47;;;-2.70;99.90;;;;;;4734382;30;20058;-77
2021/01/19 05:25:28;;;;;;;11.13;5.95;;;-2.70;99.90;;;;;;4718353;30;20064;-77
2021/01/19 05:27:59;;;;;;;12.65;6.00;;;-2.80;99.90;;;;;;4718256;30;20053;-77
2021/01/19 05:30:34;;;;;;;11.73;6.63;;;-2.80;99.90;;;;;;4734399;30;20099;-77
2021/01/19 05:33:14;;;;;;;9.27;5.72;;;-2.90;99.90;;;;;;4718468;30;20138;-77
2021/01/19 05:35:45;;;;;;;12.25;6.60;;;-2.80;99.90;;;;;;4718404;30;20579;-77
2021/01/19 05:38:16;;;;;;;12.40;6.22;;;-2.90;99.90;;;;;;4718294;30;20156;-77
2021/01/19 05:40:48;;;;;;;9.18;5.88;;;-2.80;99.90;;;;;;4733052;30;20144;-77
2021/01/19 05:43:19;;;;;;;12.30;6.80;;;-2.80;99.90;;;;;;4718322;30;20144;-77
2021/01/19 05:45:51;;;;;;;14.13;7.25;;;-2.70;99.90;;;;;;4718048;30;20049;-77
2021/01/19 05:48:18;;;;;;;14.70;7.22;;;-2.60;99.90;;;;;;4734276;30;20165;-77
2021/01/19 05:50:55;;;;;;;13.25;6.88;;;-2.60;99.90;;;;;;4718215;30;20489;-77
2021/01/19 05:53:26;;;;;;;10.13;6.00;;;-2.50;99.90;;;;;;4733926;30;20466;-77
2021/01/19 05:56:02;;;;;;;15.35;6.97;;;-2.50;99.90;;;;;;4717132;30;20586;-77
2021/01/19 05:58:37;;;;;;;13.13;6.90;;;-2.40;99.90;;;;;;4704207;30;20148;-77
2021/01/19 06:01:03;;;;;;;11.63;7.07;;;-2.40;99.90;;;;;;4733660;30;20586;-77
2021/01/19 06:03:50;;;;;;;12.77;7.00;;;-2.30;99.90;;;;;;4704435;30;20481;-77
2021/01/19 06:06:25;;;;;;;10.57;6.75;;;-2.30;99.90;;;;;;4718972;30;20110;-77
2021/01/19 06:09:08;;;;;;;10.50;6.32;;;-2.20;99.90;;;;;;4718195;30;20088;-76
2021/01/19 06:11:35;;;;;;;15.32;8.13;;;-2.30;99.90;;;;;;4732320;30;20148;-76
2021/01/19 06:14:06;;;;;;;11.73;6.55;;;-2.30;99.90;;;;;;4701928;30;20052;-79
2021/01/19 06:16:38;;;;;;;13.27;7.53;;;-2.20;99.90;;;;;;4704574;30;20140;-79
2021/01/19 06:19:04;;;;;;;13.02;6.20;;;-2.30;99.90;;;;;;4718041;30;20528;-79
2021/01/19 06:21:35;;;;;;;12.95;6.78;;;-2.40;99.90;;;;;;4733005;30;20063;-78
2021/01/19 06:24:06;;;;;;;12.32;7.25;;;-2.40;99.90;;;;;;4719032;30;20370;-78
2021/01/19 06:26:41;;;;;;;13.25;8.02;;;-2.30;99.90;;;;;;4715949;30;20060;-78
2021/01/19 06:29:23;;;;;;;12.18;6.93;;;-2.30;99.90;;;;;;4717953;30;20053;-79
2021/01/19 06:32:03;;;;;;;14.40;6.70;;;-2.30;99.90;;;;;;4717949;30;20055;-79
2021/01/19 06:34:37;;;;;;;10.90;7.18;;;-2.20;99.90;;;;;;4717234;30;20044;-79
2021/01/19 06:37:10;;;;;;;15.98;7.80;;;-2.20;99.90;;;;;;4717861;30;20385;-79
2021/01/19 06:39:42;;;;;;;11.60;6.40;;;-2.20;99.90;;;;;;4701996;30;20724;-78
2021/01/19 06:42:15;;;;;;;15.75;7.43;;;-2.20;99.90;;;;;;4702996;30;20059;-76
2021/01/19 06:44:48;;;;;;;10.60;6.60;;;-2.20;99.90;;;;;;4717860;30;20053;-78
2021/01/19 06:47:20;;;;;;;12.65;7.32;;;-2.30;99.90;;;;;;4703935;30;20147;-78
2021/01/19 06:49:46;;;;;;;11.43;6.03;;;-2.30;99.90;;;;;;4716779;30;20147;-77
2021/01/19 06:52:16;;;;;;;12.63;6.53;;;-2.40;99.90;;;;;;4716970;30;20515;-77
2021/01/19 06:54:54;;;;;;;11.57;6.03;;;-2.40;99.90;;;;;;4702568;30;20436;-76
2021/01/19 06:57:47;;;;;;;10.20;5.75;;;-2.40;99.90;;;;;;4715551;30;20064;-76
2021/01/19 07:00:21;;;;;;;11.38;6.30;;;-2.40;99.90;;;;;;4714775;30;20062;-76
2021/01/19 07:02:53;;;;;;;11.75;6.18;;;-2.40;99.90;;;;;;4721154;30;20151;-76
2021/01/19 07:05:24;;;;;;;11.50;6.80;;;-2.40;99.90;;;;;;4714859;30;20045;-76
2021/01/19 07:08:43;;;;;;;10.98;5.90;;;-2.40;99.90;;;;;;4719297;30;20048;-76
2021/01/19 07:11:36;;;;;;;10.82;5.82;;;-2.40;99.90;;;;;;4715932;30;20044;-77
2021/01/19 07:14:25;;;;;;;7.40;4.85;;;-2.50;99.90;;;;;;4701734;30;20083;-76
2021/01/19 07:17:06;;;;;;;11.65;6.65;;;-2.50;99.90;;;;;;4698398;30;20045;-79
2021/01/19 07:19:50;;;;;;;14.48;6.53;;;-2.50;99.90;;;;;;4716021;30;20059;-76
2021/01/19 07:23:13;;;;;;;11.60;6.50;;;-2.40;99.90;;;;;;4716240;30;20053;-76
2021/01/19 07:25:44;;;;;;;10.98;6.72;;;-2.40;99.90;;;;;;4632187;30;20081;-76
2021/01/19 07:28:10;;;;;;;12.05;6.03;;;-2.30;99.90;;;;;;4659900;30;20428;-76
2021/01/19 07:30:42;;;;;;;12.35;7.07;;;-2.40;99.90;;;;;;4690409;30;20056;-76
2021/01/19 07:33:14;;;;;;;10.57;5.68;;;-2.30;99.90;;;;;;4715754;30;20049;-76
2021/01/19 07:35:40;;;;;;;12.68;6.25;;;-2.20;99.90;;;;;;4701211;30;20072;-76
2021/01/19 07:38:21;;;;;;;7.53;4.97;;;-2.20;99.90;;;;;;4702067;30;20060;-76
2021/01/19 07:40:53;;;;;;;11.13;7.20;;;-2.10;99.90;;;;;;4715463;30;20087;-76
2021/01/19 07:43:25;;;;;;;10.15;6.18;;;-2.10;99.90;;;;;;4715932;30;20053;-76
2021/01/19 07:45:56;;;;;;;9.70;5.25;;;-2.10;99.90;;;;;;4712061;30;20056;-76
2021/01/19 07:48:35;;;;;;;14.55;6.50;;;-2.00;99.90;;;;;;4714350;30;20072;-77
2021/01/19 07:51:15;;;;;;;8.93;5.50;;;-2.00;99.90;;;;;;4715113;30;20147;-76
2021/01/19 07:53:51;;;;;;;9.65;5.65;;;-1.90;99.90;;;;;;4714808;30;20086;-76
2021/01/19 07:56:23;;;;;;;9.32;5.95;;;-1.90;99.90;;;;;;4714449;30;20144;-76
2021/01/19 07:58:57;;;;;;;9.40;6.15;;;-1.80;99.90;;;;;;4714028;30;20056;-76
2021/01/19 08:01:35;;;;;;;11.10;5.55;;;-1.80;99.90;;;;;;4715332;30;20448;-78
2021/01/19 08:04:11;;;;;;;8.07;5.43;;;-1.80;99.90;;;;;;4700235;30;20070;-79
2021/01/19 08:06:42;;;;;;;8.63;5.28;;;-1.80;99.90;;;;;;4713654;30;20576;-78
2021/01/19 08:09:16;;;;;;;9.13;5.57;;;-1.80;99.90;;;;;;4700401;30;20382;-79
2021/01/19 08:12:01;;;;;;;9.52;6.45;;;-1.80;99.90;;;;;;4714564;30;20065;-79
2021/01/19 08:15:03;;;;;;;8.18;5.75;;;-1.70;99.90;;;;;;4715973;30;20059;-79
2021/01/19 08:17:37;;;;;;;9.43;5.20;;;-1.70;99.90;;;;;;4715302;30;20481;-79
2021/01/19 08:20:09;;;;;;;9.23;5.95;;;-1.70;99.90;;;;;;4717579;30;20062;-78
2021/01/19 08:22:40;;;;;;;7.88;4.95;;;-1.60;99.90;;;;;;4719176;30;20053;-79
2021/01/19 08:25:26;;;;;;;11.27;5.55;;;-1.60;99.90;;;;;;4718867;30;20076;-76
2021/01/19 08:27:59;;;;;;;8.50;5.20;;;-1.60;99.90;;;;;;4718895;30;20147;-77
2021/01/19 08:30:31;;;;;;;9.07;5.80;;;-1.60;99.90;;;;;;4719199;30;20071;-76
2021/01/19 08:33:02;;;;;;;11.52;6.07;;;-1.60;99.90;;;;;;4718574;30;20051;-76
2021/01/19 08:35:29;;;;;;;11.25;5.78;;;-1.50;99.90;;;;;;4717725;30;20053;-76
2021/01/19 08:38:02;;;;;;;11.48;5.45;;;-1.50;99.90;;;;;;4718703;30;20063;-76
2021/01/19 08:40:37;;;;;;;10.50;5.63;;;-1.50;99.90;;;;;;4718866;30;20053;-76
2021/01/19 08:43:09;;;;;;;8.95;5.57;;;-1.40;99.90;;;;;;4705240;30;20612;-76
2021/01/19 08:45:40;;;;;;;8.32;5.35;;;-1.30;99.90;;;;;;4700493;30;20491;-76
2021/01/19 08:48:12;;;;;;;11.50;5.70;;;-1.20;99.90;;;;;;4731388;30;20452;-76
2021/01/19 08:50:43;;;;;;;9.48;6.00;;;-1.20;99.90;;;;;;4719366;30;20051;-76
2021/01/19 08:53:14;;;;;;;12.13;6.13;;;-1.10;99.90;;;;;;4704368;30;20049;-76
2021/01/19 08:55:46;;;;;;;7.93;4.90;;;-1.10;99.90;;;;;;4734384;30;20048;-76
2021/01/19 08:58:20;;;;;;;8.27;5.60;;;-1.10;99.90;;;;;;4704655;30;20139;-76
2021/01/19 09:00:51;;;;;;;10.43;6.22;;;-1.10;99.90;;;;;;4705019;30;20052;-76
2021/01/19 09:03:22;;;;;;;5.78;4.80;;;-1.10;99.90;;;;;;4705120;30;20135;-76
2021/01/19 09:06:00;;;;;;;8.75;5.90;;;-1.00;99.90;;;;;;4705177;30;20084;-76
2021/01/19 09:08:32;;;;;;;7.55;4.78;;;-0.90;99.90;;;;;;4731219;30;20049;-77
2021/01/19 09:11:09;;;;;;;8.45;4.63;;;-0.90;99.90;;;;;;4718851;30;20124;-77
2021/01/19 09:13:41;;;;;;;7.53;4.80;;;-0.80;99.90;;;;;;4720833;30;20513;-76
2021/01/19 09:16:22;;;;;;;7.72;5.35;;;-0.70;99.90;;;;;;4718122;30;20055;-76
2021/01/19 09:18:55;;;;;;;8.93;5.30;;;-0.60;99.90;;;;;;4717484;30;20063;-76
2021/01/19 09:21:28;;;;;;;6.88;5.05;;;-0.50;99.90;;;;;;4704121;30;20143;-76
2021/01/19 09:24:00;;;;;;;6.85;3.85;;;-0.40;99.90;;;;;;4730390;30;20072;-79
2021/01/19 09:26:45;;;;;;;7.47;4.97;;;-0.40;99.90;;;;;;4717507;30;20059;-78
2021/01/19 09:29:24;;;;;;;7.15;4.55;;;-0.30;99.90;;;;;;4717296;30;20044;-78
2021/01/19 09:32:03;;;;;;;9.93;5.40;;;-0.30;99.90;;;;;;4718657;30;20709;-79
2021/01/19 09:34:31;;;;;;;7.63;4.75;;;-0.20;99.90;;;;;;4729063;30;20509;-79
2021/01/19 09:37:04;;;;;;;7.38;5.22;;;-0.10;99.90;;;;;;4721393;30;20052;-78
2021/01/19 09:39:36;;;;;;;6.38;4.30;;;-0.10;99.90;;;;;;4720718;30;20048;-78
2021/01/19 09:42:08;;;;;;;6.75;4.30;;;-0.10;99.90;;;;;;4721136;30;20065;-78
2021/01/19 09:44:40;;;;;;;7.10;4.70;;;0.00;99.90;;;;;;4749507;30;20140;-78
2021/01/19 09:47:13;;;;;;;6.38;4.45;;;0.10;99.90;;;;;;4733515;30;20052;-79
2021/01/19 09:49:45;;;;;;;6.70;4.50;;;0.10;99.90;;;;;;4716938;30;20527;-79
2021/01/19 09:52:16;;;;;;;10.13;4.93;;;0.20;99.90;;;;;;4717650;30;20531;-78
2021/01/19 09:54:47;;;;;;;7.93;4.75;;;0.30;99.90;;;;;;4717263;30;20049;-78
2021/01/19 09:57:13;;;;;;;7.72;4.90;;;0.30;99.90;;;;;;4717437;30;20053;-78
2021/01/19 09:59:45;;;;;;;7.45;4.53;;;0.40;99.90;;;;;;4717790;30;20055;-78
2021/01/19 10:02:28;;;;;;;6.95;5.05;;;0.50;99.90;;;;;;4717393;30;20061;-78
2021/01/19 10:05:01;;;;;;;6.70;4.40;;;0.60;99.90;;;;;;4721005;30;20059;-78
2021/01/19 10:07:33;;;;;;;5.18;3.63;;;0.70;99.90;;;;;;4703772;30;20057;-78
2021/01/19 10:10:15;;;;;;;6.88;4.25;;;0.60;99.90;;;;;;4717879;30;20058;-78
2021/01/19 10:12:47;;;;;;;7.60;4.35;;;0.70;99.90;;;;;;4717928;30;20045;-79
2021/01/19 10:15:22;;;;;;;4.93;3.13;;;0.80;99.90;;;;;;4731993;30;20056;-79
2021/01/19 10:17:57;;;;;;;6.28;3.63;;;0.80;99.90;;;;;;4703013;30;20060;-78
2021/01/19 10:20:36;;;;;;;6.35;3.88;;;0.90;99.90;;;;;;4716994;30;20067;-79
2021/01/19 10:23:07;;;;;;;5.63;3.55;;;1.00;99.90;;;;;;4717416;30;20238;-78
2021/01/19 10:25:39;;;;;;;5.15;3.38;;;1.00;99.90;;;;;;4702761;30;20063;-78
2021/01/19 10:28:10;;;;;;;5.30;3.28;;;1.00;99.90;;;;;;4717039;30;20045;-78
2021/01/19 10:30:42;;;;;;;4.85;3.42;;;1.00;99.90;;;;;;4716791;30;20056;-78
2021/01/19 10:33:25;;;;;;;4.40;2.85;;;1.00;99.90;;;;;;4702704;30;20056;-78
2021/01/19 10:36:05;;;;;;;4.00;3.13;;;1.00;99.90;;;;;;4702414;30;20049;-78
2021/01/19 10:38:38;;;;;;;5.43;2.35;;;1.10;99.90;;;;;;4702509;30;20063;-78
2021/01/19 10:41:10;;;;;;;3.90;2.85;;;1.20;99.90;;;;;;4717407;30;20080;-78
2021/01/19 10:43:41;;;;;;;4.10;2.30;;;1.20;99.90;;;;;;4716154;30;20420;-78
2021/01/19 10:46:20;;;;;;;4.20;2.03;;;1.20;99.90;;;;;;4702760;30;20131;-78
2021/01/19 10:49:02;;;;;;;5.57;2.35;;;1.30;99.90;;;;;;4716151;30;20059;-78
2021/01/19 10:51:35;;;;;;;2.83;1.77;;;1.40;99.90;;;;;;4716843;30;20048;-79
2021/01/19 10:54:19;;;;;;;3.35;2.40;;;1.40;99.90;;;;;;4703530;30;20045;-79
2021/01/19 10:57:07;;;;;;;3.95;2.40;;;1.50;99.90;;;;;;4732679;30;20049;-79
2021/01/19 10:59:39;;;;;;;2.72;1.83;;;1.60;99.90;;;;;;4704082;30;20052;-79
2021/01/19 11:02:10;;;;;;;2.47;1.70;;;1.50;99.90;;;;;;4700071;30;20127;-79
2021/01/19 11:04:41;;;;;;;3.03;2.15;;;1.60;99.90;;;;;;4727472;30;20049;-78
2021/01/19 11:07:12;;;;;;;3.80;2.05;;;1.60;99.90;;;;;;4704539;30;20160;-79
2021/01/19 11:09:43;;;;;;;3.92;2.10;;;1.60;99.90;;;;;;4702700;30;20049;-79
2021/01/19 11:12:18;;;;;;;2.88;2.03;;;1.60;99.90;;;;;;4702074;30;20053;-79
2021/01/19 11:14:49;;;;;;;2.97;1.90;;;1.70;99.90;;;;;;4715586;30;20424;-76
2021/01/19 11:17:21;;;;;;;2.92;2.15;;;1.70;99.90;;;;;;4716254;30;20049;-77
2021/01/19 11:19:52;;;;;;;3.38;1.75;;;1.70;99.90;;;;;;4710348;30;20053;-76
2021/01/19 11:22:23;;;;;;;3.78;2.25;;;1.80;99.90;;;;;;4737274;30;20056;-72
2021/01/19 11:24:54;;;;;;;2.60;1.80;;;1.80;99.90;;;;;;4741392;30;20044;-77
2021/01/19 11:27:26;;;;;;;3.25;1.98;;;1.80;99.90;;;;;;4725644;30;20102;-76
2021/01/19 11:29:57;;;;;;;3.67;2.03;;;1.90;99.90;;;;;;4730066;30;20051;-76
2021/01/19 11:32:29;;;;;;;3.85;2.15;;;2.00;99.90;;;;;;4702375;30;20591;-76
2021/01/19 11:35:01;;;;;;;4.07;1.92;;;2.10;99.90;;;;;;4718298;30;20056;-79
2021/01/19 11:37:27;;;;;;;3.50;2.38;;;2.10;99.90;;;;;;4701348;30;20053;-78
2021/01/19 11:39:58;;;;;;;2.67;1.73;;;2.10;99.40;;;;;;4715975;30;20049;-78
2021/01/19 11:42:29;;;;;;;3.63;2.00;;;2.20;99.90;;;;;;4715952;30;20057;-78
2021/01/19 11:45:00;;;;;;;3.25;2.13;;;2.20;99.40;;;;;;4715600;30;20053;-78
2021/01/19 11:47:32;;;;;;;2.83;1.88;;;2.30;98.10;;;;;;4715954;30;20528;-78
2021/01/19 11:50:05;;;;;;;3.30;1.75;;;2.30;98.60;;;;;;4715736;30;20048;-79
2021/01/19 11:52:36;;;;;;;4.88;1.98;;;2.40;99.40;;;;;;4716371;30;20064;-78
2021/01/19 11:55:07;;;;;;;2.95;2.10;;;2.40;97.00;;;;;;4729787;30;20048;-78
2021/01/19 11:57:36;;;;;;;2.63;1.70;;;2.50;97.50;;;;;;4726973;30;20056;-79
2021/01/19 12:00:09;;;;;;;3.67;1.70;;;2.60;96.20;;;;;;4713136;30;20132;-79
2021/01/19 12:02:40;;;;;;;2.67;1.90;;;2.60;97.00;;;;;;4701208;30;20065;-78
2021/01/19 12:05:12;;;;;;;2.72;1.83;;;2.60;97.30;;;;;;4728204;30;20053;-79
2021/01/19 12:07:43;;;;;;;2.20;1.60;;;2.60;96.00;;;;;;4715683;30;20415;-79
2021/01/19 12:10:14;;;;;;;5.35;2.67;;;2.50;96.10;;;;;;4715327;30;20049;-79
2021/01/19 12:12:46;;;;;;;3.03;1.67;;;2.60;96.10;;;;;;4701287;30;20041;-79
2021/01/19 12:15:20;;;;;;;2.50;1.80;;;2.60;96.50;;;;;;4729960;30;20059;-79
2021/01/19 12:17:52;;;;;;;2.58;1.92;;;2.50;96.80;;;;;;4729513;30;20059;-78
2021/01/19 12:20:23;;;;;;;2.60;1.73;;;2.50;96.90;;;;;;4728920;30;20139;-78
2021/01/19 12:22:54;;;;;;;2.22;1.52;;;2.50;96.20;;;;;;4715922;30;20045;-79
2021/01/19 12:25:26;;;;;;;2.67;1.63;;;2.50;95.80;;;;;;4729738;30;20416;-79
2021/01/19 12:27:57;;;;;;;2.83;1.83;;;2.50;95.50;;;;;;4728686;30;20048;-78
2021/01/19 12:30:29;;;;;;;2.60;1.88;;;2.50;96.00;;;;;;4715049;30;20052;-79
2021/01/19 12:33:00;;;;;;;3.53;2.60;;;2.40;96.40;;;;;;4729662;30;20047;-78
2021/01/19 12:35:32;;;;;;;3.47;2.35;;;2.40;96.70;;;;;;4701078;30;20055;-78
2021/01/19 12:38:03;;;;;;;2.97;1.92;;;2.30;96.70;;;;;;4715766;30;20053;-78
2021/01/19 12:40:34;;;;;;;3.15;1.95;;;2.30;97.40;;;;;;4708011;30;20057;-79
2021/01/19 12:43:06;;;;;;;2.58;2.17;;;2.30;97.00;;;;;;4712053;30;20053;-78
2021/01/19 12:45:38;;;;;;;2.58;1.88;;;2.30;97.10;;;;;;4711718;30;20064;-79
2021/01/19 12:48:10;;;;;;;3.20;2.05;;;2.30;96.60;;;;;;4697629;30;20545;-79
2021/01/19 12:50:43;;;;;;;4.03;2.30;;;2.30;97.80;;;;;;4698004;30;20394;-79
2021/01/19 12:53:14;;;;;;;2.70;1.90;;;2.20;98.20;;;;;;4698132;30;20055;-79
2021/01/19 12:55:45;;;;;;;3.05;2.15;;;2.20;98.10;;;;;;4711429;30;20053;-79
2021/01/19 12:58:16;;;;;;;4.55;2.38;;;2.10;98.60;;;;;;4712429;30;20521;-79
2021/01/19 13:00:48;;;;;;;4.28;2.38;;;2.10;99.10;;;;;;4711552;30;20056;-79
2021/01/19 13:03:19;;;;;;;2.50;2.20;;;2.10;99.20;;;;;;4715050;30;20058;-79
2021/01/19 13:05:50;;;;;;;4.35;2.33;;;2.10;99.40;;;;;;4716339;30;20514;-79
2021/01/19 13:08:22;;;;;;;5.93;2.38;;;2.10;99.00;;;;;;4717526;30;20048;-79
2021/01/19 13:10:53;;;;;;;3.83;2.80;;;2.10;99.70;;;;;;4704231;30;20045;-80
2021/01/19 13:13:24;;;;;;;4.57;2.33;;;2.10;99.10;;;;;;4718621;30;20527;-80
2021/01/19 13:15:56;;;;;;;2.97;2.17;;;2.10;99.30;;;;;;4734144;30;20416;-79
2021/01/19 13:18:27;;;;;;;3.20;2.08;;;2.10;99.10;;;;;;4704219;30;20701;-79
2021/01/19 13:20:58;;;;;;;3.40;2.40;;;2.10;98.90;;;;;;4717965;30;20048;-79